Terminal Aerodrome Forecast
Issued by NWS

Home | Current Version | Previous Version | Text Only | Print | Product List | Glossary On
Versions: 1 2 3 4 5 6 7 8 9 10 11 12 13 14 15 16
000
FTUS46 KOTX 240538
TAFMWH
TAF
KMWH 240538Z 2406/2506 17009KT P6SM -RA FEW040 OVC060
     FM240800 18014KT P6SM -RA BKN025 OVC040
     FM241100 20015KT P6SM -SHRA SCT040 OVC060
     FM241800 20017G27KT P6SM SCT050 BKN090
     FM250200 24009KT P6SM SCT060=

USA.gov is the U.S. government's official web portal to all federal, state and local government web resources and services.